首页
METAR-TAF:

METAR-TAF

机场 :

北京首都国际机场

北京, 中华人民共和国

纬度: 39-56N, 经度: 116-17E, 海拔: 55米

当前天气观测

该预报发布于44分钟前的10:30 UTC
风速2节,风向多变
温度 8°C
湿度 61%
气压 1018 hPa
能见度10公里或以上
多云层高于3000英尺

METAR: ZBAA 151030Z VRB01MPS 9999 BKN030 08/01 Q1018 NOSIG

时间: 19:14 (11:14 UTC)

预报

该预报发布于7小时和54分钟前的03:20 UTC
预报有效从15日的 06点(UTC)到 16日的 06点(UTC)
风速8节,风向南转南东
能见度10公里或以上
1500米以下无云,无积雨云

TAF: ZBAA 150320Z 1506/1606 16004MPS CAVOK TX09/1507Z TNM02/21Z

超过4000个机场的气象观测和天气预报(METAR&TAF报告)。

可查询的气象台以黄色和红色小点在地图上表示。

将鼠标移到小点上方,可查看气象台名称。

然后点击查看天气观测和预报。

如需切换地图:点击带黑十字的绿色按钮放大地图;点击带横线的绿色按钮缩小地图;或者点击绿色箭头查看邻近地区的地图。


METAR-TAF: